createdAt,value
2018-09-27T00:01:26.372Z,92.45
2018-09-27T00:03:54.576Z,91.87
2018-09-27T00:06:22.859Z,91.88
2018-09-27T00:08:51.159Z,92.67
2018-09-27T00:11:19.532Z,92.26
2018-09-27T00:13:47.956Z,91.94
2018-09-27T00:16:16.167Z,92.03
2018-09-27T00:18:44.447Z,92.28
2018-09-27T00:21:12.620Z,92.03
2018-09-27T00:23:40.882Z,91.70
2018-09-27T00:26:09.289Z,91.85
2018-09-27T00:28:37.608Z,92.28
2018-09-27T00:31:06.084Z,92.93
2018-09-27T00:33:34.422Z,93.13
2018-09-27T00:36:02.804Z,93.63
2018-09-27T00:38:31.179Z,93.18
2018-09-27T00:40:59.506Z,93.02
2018-09-27T00:43:27.801Z,92.30
2018-09-27T00:45:56.036Z,91.84
2018-09-27T00:48:24.267Z,91.84
2018-09-27T00:50:52.468Z,92.42
2018-09-27T00:53:20.673Z,93.35
2018-09-27T00:55:48.938Z,93.44
2018-09-27T00:58:17.127Z,93.97
2018-09-27T01:00:45.340Z,94.09
2018-09-27T01:03:13.644Z,94.24
2018-09-27T01:05:41.959Z,93.97
2018-09-27T01:08:10.193Z,93.67
2018-09-27T01:10:38.419Z,93.61
2018-09-27T01:13:06.788Z,93.61
2018-09-27T01:15:34.987Z,93.71
2018-09-27T01:18:04.146Z,93.87
2018-09-27T01:20:32.351Z,94.41
2018-09-27T01:23:00.580Z,94.57
2018-09-27T01:25:28.968Z,94.89
2018-09-27T01:27:57.244Z,94.67
2018-09-27T01:30:25.546Z,94.57
2018-09-27T01:32:53.998Z,94.45
2018-09-27T01:35:22.265Z,94.47
2018-09-27T01:37:50.555Z,96.17
2018-09-27T01:40:18.824Z,97.08
2018-09-27T01:42:47.192Z,98.37
2018-09-27T01:45:15.934Z,99.03
2018-09-27T01:47:44.311Z,99.19
2018-09-27T01:50:12.606Z,99.13
2018-09-27T01:52:40.837Z,98.98
2018-09-27T01:55:09.257Z,99.01
2018-09-27T01:57:37.508Z,99.18
2018-09-27T02:00:05.795Z,99.36
2018-09-27T02:02:33.999Z,99.22
2018-09-27T02:05:02.239Z,99.19
2018-09-27T02:07:30.539Z,99.02
2018-09-27T02:09:58.795Z,98.99
2018-09-27T02:12:27.065Z,98.90
2018-09-27T02:14:55.381Z,99.75
2018-09-27T02:17:23.738Z,99.08
2018-09-27T02:19:52.058Z,98.18
2018-09-27T02:22:20.451Z,97.62
2018-09-27T02:24:48.811Z,97.51
2018-09-27T02:27:17.090Z,97.33
2018-09-27T02:29:45.337Z,97.37
2018-09-27T02:32:13.586Z,97.48
2018-09-27T02:34:41.924Z,97.42
2018-09-27T02:37:10.247Z,98.08
2018-09-27T02:39:38.631Z,98.59
2018-09-27T02:42:07.019Z,99.04
2018-09-27T02:44:35.327Z,99.83
2018-09-27T02:47:03.595Z,99.95
2018-09-27T02:49:31.843Z,100.00
2018-09-27T02:52:00.103Z,100.00
2018-09-27T02:54:28.323Z,100.00
2018-09-27T02:56:56.646Z,100.00
2018-09-27T02:59:24.882Z,100.00
2018-09-27T03:01:53.129Z,99.78
2018-09-27T03:04:21.419Z,99.79
2018-09-27T03:06:49.667Z,99.80
2018-09-27T03:09:18.177Z,99.48
2018-09-27T03:11:46.410Z,99.33
2018-09-27T03:14:14.640Z,99.36
2018-09-27T03:16:42.883Z,99.36
2018-09-27T03:19:11.150Z,99.19
2018-09-27T03:21:39.436Z,99.23
2018-09-27T03:24:07.657Z,99.89
2018-09-27T03:26:35.991Z,100.00
2018-09-27T03:29:04.256Z,100.00
2018-09-27T03:31:32.522Z,99.75
2018-09-27T03:34:00.842Z,99.56
2018-09-27T03:36:29.128Z,100.00
2018-09-27T03:38:57.458Z,100.00
2018-09-27T03:41:25.778Z,100.00
2018-09-27T03:43:53.947Z,100.00
2018-09-27T03:46:22.166Z,100.00
2018-09-27T03:48:50.409Z,100.00
2018-09-27T03:51:18.690Z,100.00
2018-09-27T03:53:47.047Z,100.00
2018-09-27T03:56:15.230Z,100.00
2018-09-27T03:58:43.436Z,100.00
2018-09-27T04:01:11.748Z,100.00
2018-09-27T04:03:40.024Z,100.00
2018-09-27T04:06:08.331Z,100.00
2018-09-27T04:08:36.599Z,100.00
2018-09-27T04:11:04.926Z,100.00
2018-09-27T04:13:33.177Z,100.00
2018-09-27T04:16:01.921Z,100.00
2018-09-27T04:18:30.228Z,99.93
2018-09-27T04:20:58.725Z,100.00
2018-09-27T04:23:26.947Z,99.68
2018-09-27T04:25:55.183Z,99.70
2018-09-27T04:28:23.434Z,99.73
2018-09-27T04:30:51.698Z,99.86
2018-09-27T04:33:19.907Z,99.81
2018-09-27T04:35:48.704Z,99.90
2018-09-27T04:38:16.944Z,100.00
2018-09-27T04:40:45.285Z,100.00
2018-09-27T04:43:13.642Z,100.00
2018-09-27T04:45:48.446Z,100.00
2018-09-27T04:48:16.696Z,100.00
2018-09-27T04:50:45.009Z,100.00
2018-09-27T04:53:13.227Z,100.00
2018-09-27T04:55:41.465Z,100.00
2018-09-27T04:58:09.934Z,100.00
2018-09-27T05:00:38.319Z,100.00
2018-09-27T05:03:06.879Z,100.00
2018-09-27T05:05:35.163Z,100.00
2018-09-27T05:08:03.543Z,100.00
2018-09-27T05:10:31.927Z,100.00
2018-09-27T05:13:00.225Z,100.00
2018-09-27T05:15:28.541Z,100.00
2018-09-27T05:17:56.800Z,100.00
2018-09-27T05:20:25.242Z,100.00
2018-09-27T05:22:53.610Z,100.00
2018-09-27T05:25:21.931Z,100.00
2018-09-27T05:27:50.252Z,100.00
2018-09-27T05:30:18.492Z,100.00
2018-09-27T05:32:46.838Z,100.00
2018-09-27T05:35:15.179Z,100.00
2018-09-27T05:37:43.546Z,100.00
2018-09-27T05:40:11.892Z,100.00
2018-09-27T05:42:40.154Z,100.00
2018-09-27T05:45:08.892Z,100.00
2018-09-27T05:47:37.207Z,100.00
2018-09-27T05:50:06.636Z,100.00
2018-09-27T05:52:34.928Z,100.00
2018-09-27T05:55:03.280Z,100.00
2018-09-27T05:57:31.700Z,100.00
2018-09-27T06:00:00.150Z,100.00
2018-09-27T06:02:28.585Z,100.00
2018-09-27T06:04:56.927Z,100.00
2018-09-27T06:07:25.264Z,100.00
2018-09-27T06:09:53.614Z,100.00
2018-09-27T06:12:21.961Z,100.00
2018-09-27T06:14:50.307Z,100.00
2018-09-27T06:17:18.633Z,100.00
2018-09-27T06:19:47.003Z,100.00
2018-09-27T06:22:15.306Z,100.00
2018-09-27T06:24:43.616Z,100.00
2018-09-27T06:27:11.947Z,100.00
2018-09-27T06:29:40.229Z,100.00
2018-09-27T06:32:08.566Z,100.00
2018-09-27T06:34:36.931Z,98.74
2018-09-27T06:37:05.244Z,98.02
2018-09-27T06:39:33.499Z,95.76
2018-09-27T06:42:01.849Z,95.46
2018-09-27T06:44:30.165Z,94.95
2018-09-27T06:46:58.547Z,95.13
2018-09-27T06:49:26.751Z,95.61
2018-09-27T06:51:55.079Z,96.08
2018-09-27T06:54:23.351Z,95.81
2018-09-27T06:56:51.783Z,94.89
2018-09-27T06:59:20.183Z,93.54
2018-09-27T07:01:48.450Z,92.59
2018-09-27T07:04:16.964Z,91.45
2018-09-27T07:06:45.235Z,90.77
2018-09-27T07:09:14.168Z,90.03
2018-09-27T07:11:42.467Z,90.38
2018-09-27T07:14:11.457Z,91.07
2018-09-27T07:16:39.831Z,91.09
2018-09-27T07:19:08.778Z,90.57
2018-09-27T07:21:37.075Z,90.78
2018-09-27T07:24:05.379Z,91.24
2018-09-27T07:26:33.723Z,91.96
2018-09-27T07:29:02.119Z,91.95
2018-09-27T07:31:30.448Z,91.82
2018-09-27T07:33:58.683Z,92.28
2018-09-27T07:36:26.982Z,91.46
2018-09-27T07:38:55.245Z,88.75
2018-09-27T07:41:23.535Z,88.32
2018-09-27T07:43:51.863Z,86.91
2018-09-27T07:46:20.155Z,87.05
2018-09-27T07:48:48.369Z,83.95
2018-09-27T07:51:16.717Z,83.91
2018-09-27T07:53:45.023Z,82.30
2018-09-27T07:56:13.298Z,82.12
2018-09-27T07:58:41.656Z,81.52
2018-09-27T08:01:10.027Z,80.20
2018-09-27T08:03:38.468Z,80.31
2018-09-27T08:06:06.936Z,80.28
2018-09-27T08:08:35.296Z,81.37
2018-09-27T08:11:03.760Z,81.29
2018-09-27T08:13:32.100Z,80.04
2018-09-27T08:16:00.461Z,79.82
2018-09-27T08:18:28.871Z,79.50
2018-09-27T08:20:57.258Z,78.63
2018-09-27T08:23:25.473Z,78.32
2018-09-27T08:25:53.731Z,78.51
2018-09-27T08:28:22.115Z,77.58
2018-09-27T08:30:50.503Z,76.38
2018-09-27T08:33:18.826Z,76.52
2018-09-27T08:35:47.347Z,75.93
2018-09-27T08:38:16.163Z,74.10
2018-09-27T08:40:44.324Z,73.75
2018-09-27T08:43:12.743Z,73.61
2018-09-27T08:45:41.228Z,71.85
2018-09-27T08:48:09.635Z,72.69
2018-09-27T08:50:37.951Z,71.73
2018-09-27T08:53:06.475Z,71.25
2018-09-27T08:55:35.021Z,70.65
2018-09-27T08:58:03.303Z,69.48
2018-09-27T09:00:31.623Z,69.47
2018-09-27T09:02:59.985Z,68.54
2018-09-27T09:05:28.287Z,68.39
2018-09-27T09:07:56.592Z,68.48
2018-09-27T09:10:24.867Z,67.94
2018-09-27T09:12:53.309Z,67.55
2018-09-27T09:15:21.805Z,66.25
2018-09-27T09:17:50.107Z,66.08
2018-09-27T09:20:18.455Z,65.76
2018-09-27T09:22:47.352Z,64.94
2018-09-27T09:25:15.687Z,64.10
2018-09-27T09:27:43.949Z,63.90
2018-09-27T09:30:12.320Z,62.62
2018-09-27T09:32:40.530Z,62.66
2018-09-27T09:35:08.875Z,61.09
2018-09-27T09:37:37.170Z,61.13
2018-09-27T09:40:05.732Z,60.46
2018-09-27T09:42:34.059Z,59.69
2018-09-27T09:45:02.528Z,60.03
2018-09-27T09:47:30.770Z,59.96
2018-09-27T09:49:59.117Z,59.28
2018-09-27T09:52:27.421Z,59.47
2018-09-27T09:54:55.764Z,58.91
2018-09-27T09:57:24.173Z,59.19
2018-09-27T09:59:52.479Z,59.67
2018-09-27T10:02:20.728Z,58.46
2018-09-27T10:04:48.960Z,58.41
2018-09-27T10:07:17.390Z,58.17
2018-09-27T10:09:45.697Z,57.30
2018-09-27T10:12:14.071Z,57.67
2018-09-27T10:14:42.379Z,57.42
2018-09-27T10:17:10.643Z,56.44
2018-09-27T10:19:38.963Z,57.30
2018-09-27T10:22:07.511Z,56.27
2018-09-27T10:24:35.796Z,55.93
2018-09-27T10:27:04.120Z,55.38
2018-09-27T10:29:32.412Z,55.12
2018-09-27T10:32:00.788Z,54.42
2018-09-27T10:34:29.139Z,54.74
2018-09-27T10:36:57.435Z,54.59
2018-09-27T10:39:25.808Z,52.68
2018-09-27T10:41:54.202Z,52.52
2018-09-27T10:44:22.563Z,52.27
2018-09-27T10:46:50.926Z,52.07
2018-09-27T10:49:19.230Z,50.13
2018-09-27T10:51:47.563Z,48.78
2018-09-27T10:54:15.883Z,48.59
2018-09-27T10:56:44.144Z,47.78
2018-09-27T10:59:12.438Z,47.35
2018-09-27T11:01:40.734Z,47.60
2018-09-27T11:04:09.143Z,47.45
2018-09-27T11:06:37.487Z,47.22
2018-09-27T11:09:07.919Z,47.14
2018-09-27T11:11:36.314Z,47.33
2018-09-27T11:14:04.468Z,46.07
2018-09-27T11:16:32.772Z,44.76
2018-09-27T11:19:01.051Z,45.92
2018-09-27T11:21:29.299Z,44.76
2018-09-27T11:23:57.811Z,43.72
2018-09-27T11:26:26.133Z,43.12
2018-09-27T11:28:59.856Z,42.79
2018-09-27T11:32:36.315Z,42.72
2018-09-27T11:35:04.544Z,41.95
2018-09-27T11:37:32.825Z,41.09
2018-09-27T11:40:01.133Z,42.04
2018-09-27T11:42:29.424Z,41.61
2018-09-27T11:44:57.634Z,41.28
2018-09-27T11:47:26.022Z,40.99
2018-09-27T11:49:54.552Z,39.97
2018-09-27T11:52:22.905Z,40.30
2018-09-27T11:54:51.211Z,39.84
2018-09-27T11:57:19.700Z,40.01
2018-09-27T11:59:48.012Z,39.73
2018-09-27T12:02:16.300Z,39.79
2018-09-27T12:04:44.604Z,39.53
2018-09-27T12:07:13.424Z,40.25
2018-09-27T12:09:41.896Z,40.08
2018-09-27T12:12:10.375Z,39.24
2018-09-27T12:14:38.705Z,39.15
2018-09-27T12:17:06.988Z,39.49
2018-09-27T12:19:35.306Z,40.00
2018-09-27T12:22:03.513Z,38.78
2018-09-27T12:24:31.829Z,39.67
2018-09-27T12:27:00.326Z,38.84
2018-09-27T12:29:28.520Z,37.62
2018-09-27T12:31:56.893Z,37.34
2018-09-27T12:34:25.433Z,37.41
2018-09-27T12:36:53.718Z,37.83
2018-09-27T12:39:22.005Z,36.40
2018-09-27T12:41:50.362Z,36.98
2018-09-27T12:44:18.552Z,34.89
2018-09-27T12:46:46.874Z,35.48
2018-09-27T12:49:15.151Z,36.46
2018-09-27T12:51:43.463Z,35.93
2018-09-27T12:54:11.547Z,35.64
2018-09-27T12:56:39.818Z,35.11
2018-09-27T12:59:08.273Z,34.58
2018-09-27T13:01:36.844Z,34.71
2018-09-27T13:04:05.263Z,34.11
2018-09-27T13:06:33.557Z,33.48
2018-09-27T13:09:02.010Z,33.59
2018-09-27T13:11:30.184Z,33.84
2018-09-27T13:13:58.480Z,33.91
2018-09-27T13:16:26.707Z,32.62
2018-09-27T13:18:57.940Z,33.01
2018-09-27T13:21:23.248Z,31.71
2018-09-27T13:23:51.526Z,31.22
2018-09-27T13:26:19.702Z,30.52
2018-09-27T13:28:47.992Z,29.99
2018-09-27T13:31:16.496Z,31.16
2018-09-27T13:33:44.676Z,29.54
2018-09-27T13:36:12.980Z,29.45
2018-09-27T13:38:41.288Z,28.80
2018-09-27T13:41:09.565Z,29.03
2018-09-27T13:43:37.913Z,27.69
2018-09-27T13:46:06.385Z,27.86
2018-09-27T13:48:34.757Z,27.47
2018-09-27T13:51:03.079Z,27.88
2018-09-27T13:53:31.384Z,27.84
2018-09-27T13:55:59.760Z,27.22
2018-09-27T13:58:28.059Z,27.69
2018-09-27T14:00:56.397Z,27.61
2018-09-27T14:03:24.730Z,26.98
2018-09-27T14:05:52.878Z,27.43
2018-09-27T14:08:21.227Z,27.95
2018-09-27T14:10:49.556Z,27.41
2018-09-27T14:13:17.925Z,27.70
2018-09-27T14:15:46.330Z,28.58
2018-09-27T14:18:14.507Z,27.89
2018-09-27T14:20:42.916Z,27.54
2018-09-27T14:23:11.140Z,27.81
2018-09-27T14:25:39.562Z,27.70
2018-09-27T14:28:07.700Z,28.84
2018-09-27T14:30:36.060Z,28.42
2018-09-27T14:33:04.277Z,28.61
2018-09-27T14:35:32.630Z,29.15
2018-09-27T14:38:00.870Z,29.69
2018-09-27T14:40:29.135Z,30.08
2018-09-27T14:42:57.639Z,29.32
2018-09-27T14:45:25.940Z,30.42
2018-09-27T14:47:54.324Z,30.27
2018-09-27T14:50:22.494Z,31.09
2018-09-27T14:52:50.760Z,30.31
2018-09-27T14:55:19.202Z,30.85
2018-09-27T14:57:47.481Z,31.10
2018-09-27T15:00:15.723Z,29.66
2018-09-27T15:02:43.968Z,30.29
2018-09-27T15:05:12.261Z,30.64
2018-09-27T15:07:40.626Z,31.36
2018-09-27T15:10:09.021Z,31.39
2018-09-27T15:12:37.295Z,30.96
2018-09-27T15:15:06.327Z,31.62
2018-09-27T15:17:34.643Z,31.56
2018-09-27T15:20:02.957Z,30.67
2018-09-27T15:22:31.279Z,32.05
2018-09-27T15:24:59.591Z,31.78
2018-09-27T15:27:27.850Z,32.00
2018-09-27T15:29:56.198Z,32.06
2018-09-27T15:32:24.595Z,32.06
2018-09-27T15:34:52.840Z,31.75
2018-09-27T15:37:21.168Z,32.38
2018-09-27T15:39:49.488Z,31.89
2018-09-27T15:42:17.759Z,32.05
2018-09-27T15:44:46.140Z,32.29
2018-09-27T15:47:14.528Z,31.84
2018-09-27T15:49:42.897Z,32.03
2018-09-27T15:52:11.167Z,32.12
2018-09-27T15:54:39.349Z,32.20
2018-09-27T15:57:07.745Z,31.59
2018-09-27T15:59:35.936Z,31.17
2018-09-27T16:02:04.458Z,31.53
2018-09-27T16:04:32.725Z,31.98
2018-09-27T16:07:01.088Z,31.92
2018-09-27T16:09:29.363Z,32.49
2018-09-27T16:11:57.813Z,32.20
2018-09-27T16:14:26.050Z,31.61
2018-09-27T16:16:54.375Z,32.07
2018-09-27T16:19:22.588Z,32.11
2018-09-27T16:21:50.846Z,33.01
2018-09-27T16:24:19.140Z,33.30
2018-09-27T16:26:47.404Z,33.75
2018-09-27T16:29:15.634Z,33.76
2018-09-27T16:31:43.968Z,33.23
2018-09-27T16:34:12.320Z,33.45
2018-09-27T16:36:40.652Z,33.71
2018-09-27T16:39:09.909Z,34.05
2018-09-27T16:41:38.608Z,35.01
2018-09-27T16:44:07.107Z,36.34
2018-09-27T16:46:35.672Z,36.92
2018-09-27T16:49:04.516Z,35.95
2018-09-27T16:51:32.739Z,36.04
2018-09-27T16:54:01.064Z,35.84
2018-09-27T16:56:29.384Z,35.40
2018-09-27T16:58:57.646Z,36.32
2018-09-27T17:02:05.562Z,41.11
2018-09-27T17:04:33.868Z,40.56
2018-09-27T17:07:02.218Z,41.54
2018-09-27T17:09:30.420Z,44.38
2018-09-27T17:11:59.301Z,41.45
2018-09-27T17:14:27.576Z,41.77
2018-09-27T17:16:55.856Z,42.48
2018-09-27T17:19:24.172Z,42.92
2018-09-27T17:21:52.492Z,43.70
2018-09-27T17:24:20.888Z,44.88
2018-09-27T17:26:49.159Z,44.87
2018-09-27T17:29:17.420Z,45.29
2018-09-27T17:31:45.771Z,45.94
2018-09-27T17:34:13.947Z,48.77
2018-09-27T17:36:42.230Z,48.64
2018-09-27T17:39:10.547Z,49.49
2018-09-27T17:41:38.884Z,49.23
2018-09-27T17:44:07.442Z,49.22
2018-09-27T17:46:35.940Z,49.99
2018-09-27T17:49:04.204Z,53.08
2018-09-27T17:51:32.494Z,52.07
2018-09-27T17:54:00.907Z,54.26
2018-09-27T17:56:29.160Z,54.60
2018-09-27T17:58:57.590Z,54.59
2018-09-27T18:01:25.837Z,54.05
2018-09-27T18:03:54.261Z,54.62
2018-09-27T18:06:22.499Z,54.89
2018-09-27T18:08:50.923Z,55.53
2018-09-27T18:11:19.356Z,54.65
2018-09-27T18:13:47.926Z,55.93
2018-09-27T18:16:16.435Z,56.53
2018-09-27T18:18:44.809Z,56.60
2018-09-27T18:21:13.120Z,57.27
2018-09-27T18:23:41.656Z,56.88
2018-09-27T18:26:10.083Z,56.04
2018-09-27T18:28:38.544Z,57.17
2018-09-27T18:31:07.040Z,56.69
2018-09-27T18:33:35.419Z,57.79
2018-09-27T18:36:03.715Z,58.38
2018-09-27T18:38:32.001Z,58.85
2018-09-27T18:41:00.257Z,58.21
2018-09-27T18:43:28.515Z,61.64
2018-09-27T18:45:57.053Z,60.64
2018-09-27T18:48:25.282Z,61.90
2018-09-27T18:50:53.708Z,61.91
2018-09-27T18:53:22.886Z,62.61
2018-09-27T18:55:51.110Z,62.09
2018-09-27T18:58:19.359Z,63.16
2018-09-27T19:00:47.724Z,63.65
2018-09-27T19:03:15.949Z,63.43
2018-09-27T19:05:44.279Z,64.24
2018-09-27T19:08:14.283Z,64.80
2018-09-27T19:10:42.701Z,65.24
2018-09-27T19:13:11.151Z,65.81
2018-09-27T19:15:39.473Z,66.21
2018-09-27T19:18:07.743Z,65.27
2018-09-27T19:20:36.038Z,66.71
2018-09-27T19:23:04.291Z,67.03
2018-09-27T19:25:33.314Z,66.63
2018-09-27T19:28:01.698Z,66.38
2018-09-27T19:30:29.991Z,66.53
2018-09-27T19:32:58.309Z,66.44
2018-09-27T19:35:26.595Z,66.76
2018-09-27T19:37:54.864Z,66.82
2018-09-27T19:40:23.128Z,68.30
2018-09-27T19:42:51.416Z,69.82
2018-09-27T19:45:19.724Z,69.73
2018-09-27T19:47:48.015Z,70.62
2018-09-27T19:50:16.192Z,71.19
2018-09-27T19:52:44.463Z,72.44
2018-09-27T19:55:13.356Z,72.57
2018-09-27T19:57:41.640Z,73.19
2018-09-27T20:00:10.119Z,73.93
2018-09-27T20:02:38.435Z,73.94
2018-09-27T20:05:06.711Z,73.98
2018-09-27T20:07:35.042Z,74.34
2018-09-27T20:10:03.410Z,72.89
2018-09-27T20:12:31.654Z,73.52
2018-09-27T20:14:59.945Z,72.82
2018-09-27T20:17:28.369Z,73.86
2018-09-27T20:19:56.743Z,75.77
2018-09-27T20:22:25.056Z,75.12
2018-09-27T20:24:53.460Z,76.11
2018-09-27T20:27:21.755Z,76.41
2018-09-27T20:29:49.979Z,75.88
2018-09-27T20:32:18.207Z,76.25
2018-09-27T20:34:46.504Z,76.00
2018-09-27T20:37:14.909Z,75.73
2018-09-27T20:39:43.181Z,76.33
2018-09-27T20:42:11.363Z,77.04
2018-09-27T20:44:39.683Z,77.10
2018-09-27T20:47:07.900Z,76.88
2018-09-27T20:49:37.116Z,76.44
2018-09-27T20:52:05.410Z,76.62
2018-09-27T20:54:36.584Z,77.38
2018-09-27T20:57:04.805Z,76.71
2018-09-27T20:59:33.105Z,78.16
2018-09-27T21:02:01.453Z,78.89
2018-09-27T21:04:29.739Z,79.04
2018-09-27T21:06:57.974Z,79.02
2018-09-27T21:09:26.297Z,80.08
2018-09-27T21:11:54.577Z,79.20
2018-09-27T21:14:22.939Z,80.46
2018-09-27T21:16:51.234Z,80.95
2018-09-27T21:19:19.480Z,80.97
2018-09-27T21:21:47.740Z,81.26
2018-09-27T21:24:16.040Z,81.46
2018-09-27T21:26:44.360Z,82.11
2018-09-27T21:29:12.676Z,82.06
2018-09-27T21:31:40.950Z,82.56
2018-09-27T21:34:09.094Z,83.00
2018-09-27T21:36:37.364Z,83.32
2018-09-27T21:39:06.827Z,83.80
2018-09-27T21:41:35.096Z,83.82
2018-09-27T21:44:03.388Z,83.54
2018-09-27T21:46:31.652Z,83.44
2018-09-27T21:48:59.908Z,83.88
2018-09-27T21:51:28.349Z,84.71
2018-09-27T21:53:56.687Z,85.39
2018-09-27T21:56:28.035Z,85.06
2018-09-27T21:58:56.299Z,84.98
2018-09-27T22:02:40.512Z,84.50
2018-09-27T22:05:08.753Z,84.35
2018-09-27T22:07:37.011Z,84.95
2018-09-27T22:10:05.369Z,85.44
2018-09-27T22:12:33.697Z,85.46
2018-09-27T22:15:02.012Z,85.90
2018-09-27T22:17:30.282Z,85.58
2018-09-27T22:19:58.533Z,85.66
2018-09-27T22:22:26.815Z,86.16
2018-09-27T22:24:54.994Z,86.36
2018-09-27T22:27:23.232Z,86.79
2018-09-27T22:29:51.516Z,87.04
2018-09-27T22:32:19.899Z,87.29
2018-09-27T22:34:48.191Z,87.66
2018-09-27T22:37:16.494Z,87.69
2018-09-27T22:39:44.845Z,88.65
2018-09-27T22:42:13.172Z,89.42
2018-09-27T22:44:41.695Z,90.08
2018-09-27T22:47:09.920Z,90.16
2018-09-27T22:49:38.195Z,90.03
2018-09-27T22:52:06.601Z,90.05
2018-09-27T22:54:34.803Z,89.76
2018-09-27T22:57:03.339Z,89.64
2018-09-27T22:59:31.600Z,90.28
2018-09-27T23:01:59.863Z,90.18
2018-09-27T23:04:28.172Z,89.85
2018-09-27T23:06:56.470Z,89.01
2018-09-27T23:09:24.811Z,88.75
2018-09-27T23:11:53.132Z,88.66
2018-09-27T23:14:21.411Z,89.63
2018-09-27T23:16:49.796Z,89.30
2018-09-27T23:19:18.067Z,89.06
2018-09-27T23:21:46.348Z,89.55
2018-09-27T23:24:14.744Z,90.21
2018-09-27T23:26:43.072Z,90.87
2018-09-27T23:29:11.328Z,90.69
2018-09-27T23:31:39.575Z,90.68
2018-09-27T23:34:07.864Z,91.13
2018-09-27T23:36:36.141Z,90.96
2018-09-27T23:39:05.532Z,91.12
2018-09-27T23:41:33.745Z,91.50
2018-09-27T23:44:02.023Z,91.92
2018-09-27T23:46:30.301Z,91.79
2018-09-27T23:48:58.694Z,91.91
2018-09-27T23:51:27.329Z,92.73
2018-09-27T23:53:55.606Z,92.33
2018-09-27T23:56:23.932Z,92.39
2018-09-27T23:58:52.147Z,92.83
